Time;durP1;ratioP1;P1;durP2;ratioP2;P2;SDS_P1;SDS_P2;PMS_P1;PMS_P2;Temp;Humidity;BMP_temperature;BMP_pressure;BME280_temperature;BME280_humidity;BME280_pressure;Samples;Min_cycle;Max_cycle;Signal;HPM_P1;HPM_P2
2022/05/22 00:00:23;;;;;;;1.50;0.60;;;25.70;41.10;;;;;;5045419;28;20029;-49
2022/05/22 00:02:49;;;;;;;1.35;0.60;;;25.80;41.10;;;;;;5028740;28;20029;-50
2022/05/22 00:05:17;;;;;;;1.42;0.60;;;25.70;41.20;;;;;;5047118;28;20009;-49
2022/05/22 00:07:44;;;;;;;1.58;0.70;;;25.70;41.20;;;;;;5045973;28;20527;-50
2022/05/22 00:10:11;;;;;;;1.75;0.73;;;25.70;41.10;;;;;;5046441;28;20032;-50
2022/05/22 00:12:38;;;;;;;1.50;0.70;;;25.70;41.20;;;;;;5044825;28;20028;-49
2022/05/22 00:15:05;;;;;;;1.60;0.70;;;25.70;41.20;;;;;;5046531;28;20103;-50
2022/05/22 00:17:30;;;;;;;1.50;0.70;;;25.70;41.20;;;;;;5046678;28;20094;-51
2022/05/22 00:19:56;;;;;;;1.25;0.60;;;25.70;41.00;;;;;;5046760;28;20025;-48
2022/05/22 00:22:22;;;;;;;1.23;0.75;;;25.70;41.00;;;;;;5044875;28;20051;-50
2022/05/22 00:24:48;;;;;;;1.35;0.50;;;25.70;41.00;;;;;;5046934;28;20025;-51
2022/05/22 00:27:15;;;;;;;1.42;0.60;;;25.70;41.70;;;;;;5046371;28;20025;-50
2022/05/22 00:29:41;;;;;;;3.92;0.70;;;25.70;41.00;;;;;;5046699;28;20024;-50
2022/05/22 00:32:08;;;;;;;0.80;0.50;;;25.70;40.90;;;;;;5046402;28;20029;-50
2022/05/22 00:34:35;;;;;;;1.88;0.60;;;25.60;41.00;;;;;;5046187;28;20041;-50
2022/05/22 00:37:01;;;;;;;1.02;0.60;;;25.70;41.10;;;;;;5046521;28;20033;-50
2022/05/22 00:39:27;;;;;;;1.33;0.70;;;25.70;41.10;;;;;;5044716;28;20047;-50
2022/05/22 00:41:55;;;;;;;1.67;0.75;;;25.70;41.20;;;;;;5043808;28;20061;-50
2022/05/22 00:44:22;;;;;;;0.98;0.68;;;25.60;41.20;;;;;;5045815;28;20526;-50
2022/05/22 00:46:48;;;;;;;1.27;0.60;;;25.60;41.30;;;;;;5045116;28;20074;-50
2022/05/22 00:49:30;;;;;;;1.58;0.60;;;25.60;41.30;;;;;;5046300;28;20595;-50
2022/05/22 00:51:59;;;;;;;1.30;0.50;;;25.60;41.30;;;;;;5044468;28;20029;-49
2022/05/22 00:54:36;;;;;;;1.52;0.57;;;25.60;41.30;;;;;;5045364;28;20037;-51
2022/05/22 00:57:17;;;;;;;1.88;0.70;;;25.60;41.20;;;;;;5045070;28;20703;-49
2022/05/22 00:59:48;;;;;;;1.98;0.52;;;25.60;41.20;;;;;;5044393;28;20032;-49
2022/05/22 01:02:15;;;;;;;1.50;0.77;;;25.60;41.20;;;;;;5026095;28;20078;-50
2022/05/22 01:04:44;;;;;;;1.38;0.77;;;25.60;41.30;;;;;;5046067;28;20027;-49
2022/05/22 01:07:11;;;;;;;1.40;0.63;;;25.60;41.30;;;;;;5045718;28;20587;-50
2022/05/22 01:09:36;;;;;;;1.60;0.70;;;25.60;41.20;;;;;;5044496;28;20017;-49
2022/05/22 01:12:09;;;;;;;1.70;0.70;;;25.60;41.30;;;;;;5045348;28;20033;-50
2022/05/22 01:14:36;;;;;;;1.50;0.60;;;25.60;41.20;;;;;;5043779;28;20036;-50
2022/05/22 01:17:07;;;;;;;1.38;0.60;;;25.60;41.10;;;;;;5045762;28;20096;-51
2022/05/22 01:19:34;;;;;;;1.90;0.90;;;25.60;41.10;;;;;;5044014;28;20515;-50
2022/05/22 01:22:02;;;;;;;1.77;0.70;;;25.50;41.00;;;;;;5045785;28;20025;-49
2022/05/22 01:24:29;;;;;;;1.63;0.70;;;25.60;41.10;;;;;;5045194;28;20083;-49
2022/05/22 01:26:59;;;;;;;1.90;0.80;;;25.50;41.10;;;;;;5045548;28;20025;-48
2022/05/22 01:29:25;;;;;;;1.88;0.70;;;25.60;41.10;;;;;;5044642;28;20054;-49
2022/05/22 01:31:51;;;;;;;1.40;0.70;;;25.60;41.10;;;;;;5044933;28;20033;-50
2022/05/22 01:34:17;;;;;;;2.55;1.00;;;25.60;41.10;;;;;;5045118;28;20584;-50
2022/05/22 01:36:43;;;;;;;2.40;0.90;;;25.50;41.10;;;;;;5044553;28;20028;-54
2022/05/22 01:39:09;;;;;;;1.58;0.70;;;25.60;41.10;;;;;;5045426;28;20044;-49
2022/05/22 01:41:34;;;;;;;1.50;0.80;;;25.50;41.20;;;;;;5043656;28;20663;-50
2022/05/22 01:44:00;;;;;;;1.40;0.65;;;25.50;41.10;;;;;;5044588;28;20024;-49
2022/05/22 01:46:26;;;;;;;1.98;0.80;;;25.50;41.10;;;;;;5045057;28;20033;-51
2022/05/22 01:48:52;;;;;;;1.38;0.60;;;25.50;41.10;;;;;;5045355;28;20032;-51
2022/05/22 01:51:18;;;;;;;1.70;0.70;;;25.50;41.10;;;;;;5045166;28;20028;-50
2022/05/22 01:53:44;;;;;;;1.73;0.57;;;25.50;41.20;;;;;;5044856;28;20021;-50
2022/05/22 01:56:09;;;;;;;2.30;0.73;;;25.50;41.20;;;;;;5044758;28;20423;-50
2022/05/22 01:58:35;;;;;;;2.35;0.98;;;25.50;41.20;;;;;;5044807;28;20088;-50
2022/05/22 02:01:01;;;;;;;1.80;0.90;;;25.50;41.20;;;;;;5044692;28;20472;-50
2022/05/22 02:03:27;;;;;;;1.55;0.60;;;25.50;41.20;;;;;;5044431;28;20033;-50
2022/05/22 02:05:52;;;;;;;1.75;0.60;;;25.50;41.10;;;;;;5045370;28;20029;-51
2022/05/22 02:08:24;;;;;;;1.42;0.60;;;25.50;41.10;;;;;;5045000;28;20179;-50
2022/05/22 02:10:59;;;;;;;1.42;0.60;;;25.50;41.10;;;;;;5044079;28;20535;-50
2022/05/22 02:13:30;;;;;;;0.82;0.50;;;25.50;41.10;;;;;;5043263;28;20112;-50
2022/05/22 02:15:56;;;;;;;1.70;0.80;;;25.50;41.70;;;;;;5043229;28;20021;-50
2022/05/22 02:18:22;;;;;;;1.27;0.55;;;25.50;41.10;;;;;;5044986;28;20025;-49
2022/05/22 02:20:48;;;;;;;1.67;0.70;;;25.50;41.10;;;;;;5044767;28;20033;-50
2022/05/22 02:23:15;;;;;;;2.03;0.70;;;25.40;41.10;;;;;;5026339;28;20657;-50
2022/05/22 02:25:50;;;;;;;1.48;0.68;;;25.40;41.20;;;;;;5044841;28;20377;-52
2022/05/22 02:28:17;;;;;;;1.23;0.70;;;25.50;41.10;;;;;;5043827;28;20028;-50
2022/05/22 02:30:48;;;;;;;1.70;0.65;;;25.50;41.20;;;;;;5043885;28;20150;-49
2022/05/22 02:33:14;;;;;;;1.38;0.70;;;25.40;41.20;;;;;;5043141;28;20040;-49
2022/05/22 02:35:40;;;;;;;1.60;0.50;;;25.50;41.20;;;;;;5044594;28;20029;-49
2022/05/22 02:38:06;;;;;;;1.70;0.73;;;25.50;41.20;;;;;;5044090;28;20051;-49
2022/05/22 02:40:34;;;;;;;1.23;0.60;;;25.50;41.20;;;;;;5044363;28;20017;-51
2022/05/22 02:43:00;;;;;;;1.35;0.70;;;25.50;41.20;;;;;;5042372;28;20059;-50
2022/05/22 02:45:30;;;;;;;1.85;0.65;;;25.50;41.20;;;;;;5044292;28;20108;-51
2022/05/22 02:47:56;;;;;;;1.67;0.70;;;25.40;41.20;;;;;;5043975;28;20037;-50
2022/05/22 02:50:25;;;;;;;1.23;0.63;;;25.40;41.20;;;;;;5044136;28;20044;-51
2022/05/22 02:52:51;;;;;;;0.93;0.70;;;25.40;41.20;;;;;;5042480;28;20029;-50
2022/05/22 02:55:18;;;;;;;0.93;0.50;;;25.40;41.20;;;;;;5043897;28;20044;-50
2022/05/22 02:57:44;;;;;;;2.47;0.73;;;25.40;41.10;;;;;;5041710;28;20103;-51
2022/05/22 03:00:15;;;;;;;1.40;0.70;;;25.40;41.10;;;;;;5043790;28;20175;-50
2022/05/22 03:02:41;;;;;;;1.17;0.68;;;25.40;41.10;;;;;;5043694;28;20032;-50
2022/05/22 03:05:08;;;;;;;2.17;0.60;;;25.40;41.10;;;;;;5043460;28;20020;-50
2022/05/22 03:07:37;;;;;;;2.38;0.93;;;25.40;41.10;;;;;;5043631;28;20094;-50
2022/05/22 03:10:04;;;;;;;0.80;0.50;;;25.40;41.10;;;;;;5043805;28;20024;-50
2022/05/22 03:12:30;;;;;;;1.67;0.80;;;25.40;41.10;;;;;;5043289;28;20035;-51
2022/05/22 03:14:58;;;;;;;2.28;0.52;;;25.40;41.10;;;;;;5043499;28;20021;-51
2022/05/22 03:17:25;;;;;;;1.75;0.65;;;25.40;41.10;;;;;;5042112;28;20095;-51
2022/05/22 03:19:51;;;;;;;3.25;0.88;;;25.40;41.20;;;;;;5043949;28;20028;-50
2022/05/22 03:22:18;;;;;;;1.88;0.63;;;25.40;41.10;;;;;;5043283;28;20021;-50
2022/05/22 03:24:44;;;;;;;2.13;0.85;;;25.40;41.20;;;;;;5043341;28;20606;-50
2022/05/22 03:27:13;;;;;;;1.42;0.63;;;25.40;41.20;;;;;;5033182;28;20513;-49
2022/05/22 03:29:40;;;;;;;1.23;0.60;;;25.40;41.20;;;;;;5031849;28;20053;-49
2022/05/22 03:32:07;;;;;;;2.33;0.73;;;25.40;41.10;;;;;;5030707;28;20111;-50
2022/05/22 03:34:34;;;;;;;1.13;0.52;;;25.40;41.10;;;;;;5049392;28;20709;-50
2022/05/22 03:37:00;;;;;;;1.40;0.68;;;25.30;41.20;;;;;;5050342;28;20036;-50
2022/05/22 03:39:26;;;;;;;2.10;0.82;;;25.30;41.20;;;;;;5048220;28;20076;-48
2022/05/22 03:41:52;;;;;;;3.65;1.08;;;25.40;41.20;;;;;;5048463;28;20028;-50
2022/05/22 03:44:19;;;;;;;2.03;0.77;;;25.40;41.20;;;;;;5048979;28;20033;-50
2022/05/22 03:46:45;;;;;;;1.77;0.80;;;25.30;41.90;;;;;;5049873;28;20021;-50
2022/05/22 03:49:11;;;;;;;1.52;0.85;;;25.30;41.20;;;;;;5049714;28;20028;-49
2022/05/22 03:51:38;;;;;;;2.35;0.80;;;25.30;41.30;;;;;;5049919;28;20060;-49
2022/05/22 03:54:05;;;;;;;1.27;0.60;;;25.30;41.10;;;;;;5049927;28;20060;-50
2022/05/22 03:56:31;;;;;;;1.20;0.55;;;25.30;41.10;;;;;;5048291;28;20040;-49
2022/05/22 03:58:57;;;;;;;1.60;0.80;;;25.30;41.10;;;;;;5050056;28;20081;-50
2022/05/22 04:01:23;;;;;;;1.83;0.90;;;25.30;41.20;;;;;;5049731;28;20025;-50
2022/05/22 04:03:48;;;;;;;2.15;0.80;;;25.30;41.20;;;;;;5049329;28;20024;-50
2022/05/22 04:06:14;;;;;;;1.70;0.70;;;25.30;41.20;;;;;;5050057;28;20546;-48
2022/05/22 04:08:40;;;;;;;1.95;0.60;;;25.30;41.20;;;;;;5049825;28;20024;-50
2022/05/22 04:11:11;;;;;;;0.95;0.52;;;25.30;41.20;;;;;;5049430;28;20066;-49
2022/05/22 04:13:37;;;;;;;1.40;0.60;;;25.30;41.20;;;;;;5048617;28;20025;-49
2022/05/22 04:16:03;;;;;;;1.25;0.68;;;25.30;41.20;;;;;;5049657;28;20021;-50
2022/05/22 04:18:29;;;;;;;2.10;0.90;;;25.30;41.30;;;;;;5049688;28;20036;-48
2022/05/22 04:20:55;;;;;;;1.40;0.73;;;25.30;41.30;;;;;;5049758;28;20025;-50
2022/05/22 04:26:07;;;;;;;1.20;0.60;;;25.30;41.30;;;;;;5049311;28;20431;-48
2022/05/22 04:28:33;;;;;;;1.63;0.82;;;25.30;41.30;;;;;;5049293;28;20039;-48
2022/05/22 04:30:58;;;;;;;1.63;0.73;;;25.30;41.20;;;;;;5049257;28;20099;-50
2022/05/22 04:33:25;;;;;;;1.02;0.60;;;25.30;41.20;;;;;;5047057;28;20480;-49
2022/05/22 04:35:52;;;;;;;1.20;0.50;;;25.30;41.20;;;;;;5049156;28;20025;-49
2022/05/22 04:38:18;;;;;;;1.48;0.70;;;25.30;41.10;;;;;;5045649;28;20029;-49
2022/05/22 04:41:10;;;;;;;0.93;0.50;;;25.30;41.10;;;;;;5046119;28;20096;-49
2022/05/22 04:43:36;;;;;;;1.53;0.60;;;25.30;41.10;;;;;;5044272;28;20029;-49
2022/05/22 04:46:07;;;;;;;1.45;0.60;;;25.30;41.10;;;;;;5045056;28;20033;-49
2022/05/22 04:48:32;;;;;;;1.50;0.82;;;25.30;41.90;;;;;;5044916;28;20102;-50
2022/05/22 04:50:58;;;;;;;1.67;0.60;;;25.30;41.20;;;;;;5046050;28;20063;-47
2022/05/22 04:53:26;;;;;;;2.25;0.65;;;25.30;41.20;;;;;;5044928;28;20031;-49
2022/05/22 04:55:52;;;;;;;0.90;0.60;;;25.30;41.30;;;;;;5043371;28;20028;-50
2022/05/22 04:58:19;;;;;;;2.00;0.73;;;25.30;41.30;;;;;;5044549;28;20412;-50
2022/05/22 05:00:46;;;;;;;1.67;0.60;;;25.30;41.30;;;;;;5044924;28;20036;-48
2022/05/22 05:03:12;;;;;;;1.55;0.80;;;25.30;41.30;;;;;;5045148;28;20024;-51
2022/05/22 05:05:38;;;;;;;1.48;0.70;;;25.20;41.30;;;;;;5027225;28;20143;-50
2022/05/22 05:08:04;;;;;;;0.95;0.50;;;25.30;41.30;;;;;;5045596;28;20507;-48
2022/05/22 05:10:30;;;;;;;1.35;0.70;;;25.30;41.30;;;;;;5045045;28;20025;-49
2022/05/22 05:12:56;;;;;;;1.67;0.80;;;25.30;41.30;;;;;;5045001;28;20071;-49
2022/05/22 05:15:24;;;;;;;1.08;0.60;;;25.30;41.40;;;;;;5045166;28;20036;-50
2022/05/22 05:17:51;;;;;;;1.30;0.50;;;25.30;41.30;;;;;;5043735;28;20036;-49
2022/05/22 05:20:20;;;;;;;1.83;0.80;;;25.30;41.30;;;;;;5044556;28;20025;-48
2022/05/22 05:22:46;;;;;;;2.70;1.10;;;25.30;41.30;;;;;;5044479;28;20116;-50
2022/05/22 05:25:15;;;;;;;2.70;0.88;;;25.30;41.10;;;;;;5043662;28;20147;-49
2022/05/22 05:27:41;;;;;;;3.38;1.27;;;25.30;41.10;;;;;;5044387;28;20032;-50
2022/05/22 05:30:08;;;;;;;2.08;1.05;;;25.30;40.70;;;;;;5044855;28;20021;-51
2022/05/22 05:32:34;;;;;;;3.55;1.35;;;25.30;40.70;;;;;;5044273;28;20526;-50
2022/05/22 05:35:03;;;;;;;2.38;1.08;;;25.30;40.50;;;;;;5044555;28;20040;-50
2022/05/22 05:37:29;;;;;;;2.83;1.00;;;25.20;40.40;;;;;;5044325;28;20696;-50
2022/05/22 05:39:55;;;;;;;1.95;1.05;;;25.30;40.30;;;;;;5045157;28;20028;-49
2022/05/22 05:42:22;;;;;;;2.30;1.00;;;25.30;40.40;;;;;;5044092;28;20025;-50
2022/05/22 05:44:47;;;;;;;3.50;1.35;;;25.20;40.30;;;;;;5044424;28;20025;-50
2022/05/22 05:47:13;;;;;;;2.53;1.20;;;25.30;40.10;;;;;;5042998;28;20437;-49
2022/05/22 05:49:39;;;;;;;2.28;1.00;;;25.20;40.10;;;;;;5044771;28;20052;-49
2022/05/22 05:52:05;;;;;;;2.75;1.02;;;25.30;40.00;;;;;;5044170;28;20155;-49
2022/05/22 05:54:31;;;;;;;2.40;0.95;;;25.20;40.00;;;;;;5043652;28;20199;-50
2022/05/22 05:56:58;;;;;;;2.33;1.10;;;25.20;40.00;;;;;;5022060;28;20040;-50
2022/05/22 05:59:25;;;;;;;3.08;1.40;;;25.30;40.20;;;;;;5041404;28;20033;-50
2022/05/22 06:01:51;;;;;;;3.25;1.52;;;25.20;39.90;;;;;;5044268;28;20025;-50
2022/05/22 06:04:16;;;;;;;5.45;1.52;;;25.20;39.60;;;;;;5044131;28;20779;-50
2022/05/22 06:06:42;;;;;;;2.45;1.10;;;25.20;39.60;;;;;;5044028;28;20036;-50
2022/05/22 06:09:08;;;;;;;4.15;1.20;;;25.20;40.50;;;;;;5045298;28;20025;-50
2022/05/22 06:11:34;;;;;;;4.00;1.33;;;25.30;40.00;;;;;;5042841;28;20057;-49
2022/05/22 06:13:59;;;;;;;2.30;0.90;;;25.30;40.40;;;;;;5043178;28;20032;-50
2022/05/22 06:16:26;;;;;;;2.25;0.90;;;25.30;40.30;;;;;;5043227;28;20021;-50
2022/05/22 06:18:52;;;;;;;2.45;1.00;;;25.30;39.80;;;;;;5043669;28;20448;-50
2022/05/22 06:21:21;;;;;;;3.35;1.38;;;25.30;39.80;;;;;;5043656;28;20041;-49
2022/05/22 06:23:47;;;;;;;3.83;1.38;;;25.30;39.40;;;;;;5043831;28;20762;-49
2022/05/22 06:26:17;;;;;;;3.55;1.23;;;25.40;39.40;;;;;;5043451;28;20029;-50
2022/05/22 06:28:44;;;;;;;2.50;1.15;;;25.30;38.70;;;;;;5044055;28;20110;-49
2022/05/22 06:31:11;;;;;;;2.70;1.10;;;25.30;38.50;;;;;;5043736;28;20029;-50
2022/05/22 06:33:37;;;;;;;3.22;1.30;;;25.30;38.20;;;;;;5043489;28;20055;-50
2022/05/22 06:36:12;;;;;;;2.97;1.30;;;25.40;38.00;;;;;;5043258;28;20108;-50
2022/05/22 06:41:30;;;;;;;4.53;1.17;;;25.30;38.30;;;;;;5007696;28;20043;-49
2022/05/22 06:43:56;;;;;;;3.60;1.38;;;25.30;38.40;;;;;;5043241;28;20017;-49
2022/05/22 06:46:27;;;;;;;2.30;1.10;;;25.30;38.40;;;;;;5043278;28;20083;-50
2022/05/22 06:48:53;;;;;;;2.53;1.30;;;25.30;38.60;;;;;;5043569;28;20092;-50
2022/05/22 06:51:19;;;;;;;3.08;1.55;;;25.30;38.60;;;;;;5043729;28;20085;-50
2022/05/22 06:53:44;;;;;;;3.30;1.30;;;25.30;38.60;;;;;;5038663;28;20040;-49
2022/05/22 06:56:10;;;;;;;2.80;1.25;;;25.30;38.20;;;;;;5043370;28;20795;-49
2022/05/22 06:58:36;;;;;;;2.72;1.27;;;25.30;38.50;;;;;;5042161;28;20036;-50
2022/05/22 07:01:02;;;;;;;3.63;1.65;;;25.20;38.20;;;;;;5042945;28;20600;-50
2022/05/22 07:03:28;;;;;;;3.70;1.70;;;25.20;38.20;;;;;;5042894;28;20051;-50
2022/05/22 07:05:54;;;;;;;4.10;1.55;;;25.20;38.10;;;;;;5042753;28;20463;-50
2022/05/22 07:08:19;;;;;;;3.20;1.42;;;25.20;37.90;;;;;;5043561;28;20040;-50
2022/05/22 07:13:29;;;;;;;4.07;1.42;;;25.10;37.60;;;;;;5034950;28;20226;-50
2022/05/22 07:16:00;;;;;;;2.92;1.15;;;25.10;37.80;;;;;;5045129;28;20142;-50
2022/05/22 07:18:26;;;;;;;4.38;1.30;;;25.10;38.10;;;;;;5049453;28;20039;-50
2022/05/22 07:20:52;;;;;;;6.85;1.70;;;25.10;37.70;;;;;;5043077;28;20029;-50
2022/05/22 07:23:18;;;;;;;3.42;1.77;;;25.10;37.60;;;;;;5041711;28;20033;-50
2022/05/22 07:25:44;;;;;;;3.10;1.40;;;25.10;37.50;;;;;;5042834;28;20026;-48
2022/05/22 07:28:09;;;;;;;3.90;1.25;;;25.00;37.80;;;;;;5042998;28;20037;-49
2022/05/22 07:30:35;;;;;;;3.22;1.30;;;25.00;38.00;;;;;;5043324;28;20028;-50
2022/05/22 07:33:01;;;;;;;2.55;1.20;;;25.00;38.30;;;;;;5043251;28;20037;-50
2022/05/22 07:35:26;;;;;;;1.98;1.10;;;25.00;38.30;;;;;;5038658;28;20499;-47
2022/05/22 07:37:52;;;;;;;4.00;1.40;;;25.00;37.70;;;;;;5031405;28;20417;-48
2022/05/22 07:40:19;;;;;;;3.00;1.50;;;25.00;38.20;;;;;;5023175;28;20033;-47
2022/05/22 07:42:44;;;;;;;3.17;1.33;;;25.00;38.00;;;;;;5041998;28;20044;-48
2022/05/22 07:45:14;;;;;;;3.55;1.60;;;24.90;37.40;;;;;;5043313;28;20021;-49
2022/05/22 07:47:40;;;;;;;3.90;1.60;;;24.90;37.60;;;;;;5043319;28;20043;-48
2022/05/22 07:50:18;;;;;;;3.38;1.50;;;24.90;37.90;;;;;;5043636;28;20017;-47
2022/05/22 07:52:50;;;;;;;3.85;1.60;;;24.90;38.00;;;;;;5041831;28;20085;-48
2022/05/22 07:55:18;;;;;;;3.55;1.50;;;24.80;37.10;;;;;;5023826;28;20026;-49
2022/05/22 07:57:46;;;;;;;4.53;1.73;;;24.80;37.10;;;;;;5034807;28;20086;-48
2022/05/22 08:00:14;;;;;;;5.20;1.92;;;24.70;37.40;;;;;;5043780;28;20055;-49
2022/05/22 08:02:40;;;;;;;3.28;1.33;;;24.70;37.70;;;;;;5042372;28;20017;-47
2022/05/22 08:05:08;;;;;;;3.20;1.67;;;24.70;37.40;;;;;;5043125;28;20047;-47
2022/05/22 08:07:35;;;;;;;3.42;1.52;;;24.70;37.50;;;;;;5035892;28;20025;-47
2022/05/22 08:10:01;;;;;;;3.72;1.50;;;24.70;37.30;;;;;;5037443;28;20158;-46
2022/05/22 08:12:27;;;;;;;3.70;1.50;;;24.70;37.30;;;;;;5043639;28;20107;-47
2022/05/22 08:14:53;;;;;;;3.80;1.52;;;24.60;37.50;;;;;;5046554;28;20155;-48
2022/05/22 08:17:21;;;;;;;3.53;1.67;;;24.60;37.00;;;;;;5047093;28;20033;-48
2022/05/22 08:19:48;;;;;;;3.90;1.55;;;24.60;37.60;;;;;;5046350;28;20033;-48
2022/05/22 08:22:17;;;;;;;4.68;1.65;;;24.60;37.70;;;;;;5046795;28;20021;-47
2022/05/22 08:24:43;;;;;;;3.40;1.67;;;24.60;37.70;;;;;;5028699;28;20111;-48
2022/05/22 08:27:09;;;;;;;4.68;1.58;;;24.50;36.30;;;;;;5046309;28;20044;-47
2022/05/22 08:29:35;;;;;;;4.63;1.90;;;24.50;37.30;;;;;;5043023;28;20536;-50
2022/05/22 08:32:01;;;;;;;3.90;1.60;;;24.50;37.30;;;;;;5026721;28;20033;-50
2022/05/22 08:34:27;;;;;;;3.83;1.52;;;24.40;37.40;;;;;;5026397;28;20136;-51
2022/05/22 08:36:53;;;;;;;3.90;1.58;;;24.40;37.40;;;;;;5028409;28;20116;-49
2022/05/22 08:39:19;;;;;;;3.88;1.58;;;24.40;37.10;;;;;;5046577;28;20402;-47
2022/05/22 08:41:50;;;;;;;3.05;1.40;;;24.40;37.60;;;;;;5045782;28;20078;-47
2022/05/22 08:44:22;;;;;;;3.65;1.42;;;24.40;37.60;;;;;;5046163;28;20692;-46
2022/05/22 08:47:07;;;;;;;3.97;1.60;;;24.40;37.60;;;;;;5046441;28;20685;-48
2022/05/22 08:49:46;;;;;;;3.47;1.40;;;24.40;37.50;;;;;;5043251;28;20033;-50
2022/05/22 08:52:35;;;;;;;3.10;1.73;;;24.40;37.80;;;;;;5044666;28;20508;-49
2022/05/22 08:55:09;;;;;;;4.32;1.60;;;24.40;38.00;;;;;;5022864;28;20120;-49
2022/05/22 09:00:34;;;;;;;4.45;1.75;;;24.30;38.20;;;;;;5044972;28;20032;-49
2022/05/22 09:03:13;;;;;;;4.57;1.50;;;24.30;36.60;;;;;;5043371;28;20119;-49
2022/05/22 09:05:40;;;;;;;3.78;1.75;;;24.20;37.50;;;;;;5042936;28;20053;-48
2022/05/22 09:08:16;;;;;;;3.72;1.55;;;24.20;37.70;;;;;;5045574;28;20124;-48
2022/05/22 09:11:05;;;;;;;4.95;1.73;;;24.20;38.40;;;;;;5045318;28;20103;-48
2022/05/22 09:13:36;;;;;;;3.97;1.70;;;24.10;36.30;;;;;;5061331;28;20025;-48
2022/05/22 09:16:11;;;;;;;2.97;1.40;;;24.10;38.00;;;;;;5056464;28;20492;-47
2022/05/22 09:18:57;;;;;;;4.75;1.80;;;24.10;37.80;;;;;;5045197;28;20048;-49
2022/05/22 09:21:26;;;;;;;4.55;1.42;;;24.10;37.60;;;;;;5043719;28;20059;-50
2022/05/22 09:24:04;;;;;;;5.15;1.60;;;24.00;36.00;;;;;;5026679;28;20024;-49
2022/05/22 09:26:42;;;;;;;4.45;1.42;;;23.90;36.20;;;;;;5025541;28;20040;-50
2022/05/22 09:29:38;;;;;;;3.25;1.70;;;23.90;37.60;;;;;;5039545;28;20033;-49
2022/05/22 09:32:19;;;;;;;3.92;1.38;;;23.90;37.20;;;;;;5044215;28;20033;-50
2022/05/22 09:35:11;;;;;;;3.58;1.08;;;23.80;37.80;;;;;;5034795;28;20029;-50
2022/05/22 09:37:42;;;;;;;3.92;1.48;;;23.90;37.50;;;;;;5044437;28;20025;-48
2022/05/22 09:40:17;;;;;;;4.22;1.63;;;23.80;35.60;;;;;;5041456;28;20093;-48
2022/05/22 09:43:06;;;;;;;2.88;1.20;;;23.70;35.20;;;;;;5044453;28;20485;-48
2022/05/22 09:45:44;;;;;;;2.45;1.10;;;23.60;36.80;;;;;;5044590;28;20029;-50
2022/05/22 09:48:21;;;;;;;3.35;1.45;;;23.60;37.00;;;;;;5044565;28;20749;-49
2022/05/22 09:51:11;;;;;;;5.20;1.95;;;23.60;38.40;;;;;;5044990;28;20086;-50
2022/05/22 09:53:48;;;;;;;3.63;1.75;;;23.60;39.30;;;;;;5053453;28;20611;-48
2022/05/22 09:56:33;;;;;;;3.33;1.48;;;23.70;40.20;;;;;;5045141;28;20719;-47
2022/05/22 09:59:12;;;;;;;2.72;1.48;;;23.70;40.60;;;;;;5053273;28;20114;-49
2022/05/22 10:01:43;;;;;;;3.47;1.50;;;23.70;39.30;;;;;;5046756;28;20568;-49
2022/05/22 10:04:24;;;;;;;3.58;1.58;;;23.70;36.10;;;;;;5056395;28;20707;-48
2022/05/22 10:07:10;;;;;;;3.08;1.45;;;23.70;38.20;;;;;;5044845;28;20083;-50
2022/05/22 10:09:54;;;;;;;3.80;1.35;;;23.70;37.40;;;;;;5043991;28;20013;-49
2022/05/22 10:12:19;;;;;;;3.92;1.80;;;23.70;38.00;;;;;;5051420;28;20060;-49
2022/05/22 10:14:45;;;;;;;3.90;1.75;;;23.70;37.60;;;;;;5055656;28;20532;-50
2022/05/22 10:17:38;;;;;;;3.75;1.75;;;23.70;37.70;;;;;;5043577;28;20041;-48
2022/05/22 10:20:19;;;;;;;4.00;1.65;;;23.70;38.40;;;;;;5036834;28;20033;-46
2022/05/22 10:23:29;;;;;;;4.00;1.40;;;23.70;37.40;;;;;;5042614;28;20021;-47
2022/05/22 10:26:14;;;;;;;2.97;1.40;;;23.70;36.70;;;;;;5040351;28;20021;-47
2022/05/22 10:28:50;;;;;;;3.17;1.40;;;23.70;37.40;;;;;;5043644;28;20021;-48
2022/05/22 10:31:22;;;;;;;3.40;1.15;;;23.60;37.10;;;;;;5043748;28;20036;-47
2022/05/22 10:34:12;;;;;;;3.75;1.42;;;23.60;37.30;;;;;;5042704;28;20048;-49
2022/05/22 10:36:47;;;;;;;2.50;1.33;;;23.60;38.00;;;;;;5042621;28;20040;-47
2022/05/22 10:39:14;;;;;;;3.60;1.33;;;23.70;38.20;;;;;;5024075;28;20029;-48
2022/05/22 10:44:55;;;;;;;3.35;1.50;;;23.70;36.80;;;;;;5023763;28;20455;-48
2022/05/22 10:47:32;;;;;;;4.38;1.63;;;23.70;37.90;;;;;;5023579;28;20120;-48
2022/05/22 10:50:00;;;;;;;3.95;1.70;;;23.70;38.10;;;;;;5023600;28;20029;-49
2022/05/22 10:52:32;;;;;;;3.67;1.70;;;23.80;38.60;;;;;;5023276;28;20044;-49
2022/05/22 10:54:58;;;;;;;2.65;1.10;;;23.80;38.60;;;;;;5033573;28;20040;-48
2022/05/22 10:57:27;;;;;;;3.15;1.50;;;23.80;38.30;;;;;;5043114;28;20044;-48
2022/05/22 10:59:54;;;;;;;2.35;1.10;;;23.80;38.40;;;;;;5043446;28;20036;-46
2022/05/22 11:02:22;;;;;;;4.63;1.60;;;23.90;38.30;;;;;;5037087;28;20571;-49
2022/05/22 11:04:50;;;;;;;4.40;1.50;;;23.90;38.40;;;;;;5038073;28;20092;-47
2022/05/22 11:07:46;;;;;;;4.50;1.50;;;23.90;37.60;;;;;;5043465;28;20021;-49
2022/05/22 11:10:25;;;;;;;3.15;1.15;;;23.90;36.80;;;;;;5037281;28;20541;-48
2022/05/22 11:13:23;;;;;;;3.45;1.40;;;23.90;37.70;;;;;;5041728;28;20144;-48
2022/05/22 11:15:49;;;;;;;2.70;1.23;;;23.90;36.50;;;;;;5040445;28;20063;-50
2022/05/22 11:18:26;;;;;;;4.68;1.45;;;23.80;36.50;;;;;;5041972;28;20052;-49
2022/05/22 11:21:22;;;;;;;4.53;1.50;;;23.70;36.80;;;;;;5030847;28;20105;-49
2022/05/22 11:23:55;;;;;;;4.10;1.10;;;23.70;37.20;;;;;;5042217;28;20506;-49
2022/05/22 11:26:39;;;;;;;3.67;1.50;;;23.70;37.20;;;;;;5043023;28;20604;-50
2022/05/22 11:29:39;;;;;;;3.13;1.80;;;23.70;37.40;;;;;;5040244;28;20025;-50
2022/05/22 11:32:28;;;;;;;3.15;1.20;;;23.70;37.80;;;;;;5041456;28;20028;-50
2022/05/22 11:35:24;;;;;;;3.65;1.38;;;23.80;38.10;;;;;;5040599;28;20025;-49
2022/05/22 11:38:20;;;;;;;1.67;0.80;;;23.80;38.30;;;;;;5041784;28;20045;-48
2022/05/22 11:41:07;;;;;;;3.20;1.25;;;23.90;38.60;;;;;;5042306;28;20125;-50
2022/05/22 11:43:56;;;;;;;3.28;1.40;;;23.90;38.80;;;;;;5042788;28;20427;-48
2022/05/22 11:46:59;;;;;;;1.98;0.95;;;24.00;39.00;;;;;;5015608;28;20095;-49
2022/05/22 11:49:30;;;;;;;1.73;0.80;;;24.10;39.10;;;;;;5048238;28;20071;-50
2022/05/22 11:55:11;;;;;;;2.20;1.08;;;24.20;39.20;;;;;;5047587;28;20040;-49
2022/05/22 11:57:58;;;;;;;3.13;0.90;;;24.20;39.50;;;;;;5048147;28;20035;-49
2022/05/22 12:00:36;;;;;;;2.92;0.93;;;24.20;39.40;;;;;;5047813;28;20249;-48
2022/05/22 12:03:21;;;;;;;1.63;0.75;;;24.30;39.50;;;;;;5047175;28;20124;-48
2022/05/22 12:06:11;;;;;;;2.75;1.10;;;24.30;39.80;;;;;;5047639;28;20025;-49
2022/05/22 12:09:14;;;;;;;2.28;0.85;;;24.30;39.70;;;;;;5047948;28;20086;-48
2022/05/22 12:11:52;;;;;;;;;;;24.40;39.50;;;;;;5016135;28;20041;-49
2022/05/22 12:14:47;;;;;;;2.50;0.90;;;24.40;39.60;;;;;;5047013;28;20380;-50
2022/05/22 12:17:22;;;;;;;3.05;0.90;;;24.50;39.70;;;;;;5047649;28;20033;-48
2022/05/22 12:20:07;;;;;;;2.55;0.93;;;24.50;39.70;;;;;;5047097;28;20540;-48
2022/05/22 12:25:49;;;;;;;1.88;1.00;;;24.60;39.80;;;;;;5047535;28;20347;-48
2022/05/22 12:28:26;;;;;;;2.17;1.08;;;24.70;39.90;;;;;;5041431;28;20354;-49
2022/05/22 12:30:55;;;;;;;1.77;0.80;;;24.70;39.90;;;;;;5047110;28;20060;-49
2022/05/22 12:33:23;;;;;;;1.90;1.08;;;24.80;39.90;;;;;;5045910;28;20025;-49
2022/05/22 12:35:50;;;;;;;1.98;0.80;;;24.80;39.90;;;;;;5047355;28;20021;-48
2022/05/22 12:38:16;;;;;;;2.55;1.10;;;24.80;39.90;;;;;;5047239;28;20029;-50
2022/05/22 12:41:14;;;;;;;3.05;1.02;;;24.90;39.90;;;;;;5046935;28;20029;-49
2022/05/22 12:43:41;;;;;;;1.80;0.80;;;24.90;39.90;;;;;;5046846;28;20108;-48
2022/05/22 12:46:10;;;;;;;2.22;1.10;;;24.90;39.80;;;;;;5047391;28;20184;-50
2022/05/22 12:48:43;;;;;;;2.10;0.90;;;25.00;39.90;;;;;;5047205;28;20613;-49
2022/05/22 12:51:17;;;;;;;1.70;1.00;;;25.00;39.90;;;;;;5046802;28;20369;-48
2022/05/22 12:53:49;;;;;;;1.77;0.68;;;25.00;39.90;;;;;;5044746;28;20025;-49
2022/05/22 12:56:37;;;;;;;2.17;0.88;;;25.00;39.90;;;;;;5036662;28;20037;-49
2022/05/22 12:59:22;;;;;;;5.07;0.80;;;25.10;39.90;;;;;;5035004;28;20030;-47
2022/05/22 13:01:56;;;;;;;3.03;1.10;;;25.10;40.40;;;;;;5036539;28;20064;-46
2022/05/22 13:04:34;;;;;;;3.10;1.20;;;25.10;40.30;;;;;;5033417;28;20116;-46
2022/05/22 13:07:00;;;;;;;2.10;0.90;;;25.10;40.60;;;;;;5039209;28;20032;-47
2022/05/22 13:09:31;;;;;;;3.05;1.00;;;25.20;40.50;;;;;;5034346;28;20629;-49
2022/05/22 13:12:07;;;;;;;1.40;0.75;;;25.20;40.20;;;;;;5042659;28;20029;-49
2022/05/22 13:14:37;;;;;;;3.55;1.30;;;25.30;40.10;;;;;;5041521;28;20059;-49
2022/05/22 13:17:03;;;;;;;3.88;1.35;;;25.30;39.80;;;;;;5045221;28;20010;-49
2022/05/22 13:19:32;;;;;;;2.38;1.17;;;25.30;39.60;;;;;;5045261;28;20021;-50
2022/05/22 13:22:10;;;;;;;2.40;0.93;;;25.30;39.20;;;;;;5045324;28;20052;-49
2022/05/22 13:24:38;;;;;;;1.45;0.80;;;25.40;39.30;;;;;;5045471;28;20033;-50
2022/05/22 13:27:35;;;;;;;2.17;0.95;;;25.40;39.20;;;;;;5045354;28;20735;-48